createdAt,value
2022-12-25T00:01:19.971Z,4.83
2022-12-25T00:03:47.867Z,4.87
2022-12-25T00:06:15.469Z,5.50
2022-12-25T00:08:44.383Z,5.27
2022-12-25T00:11:15.376Z,4.90
2022-12-25T00:13:43.806Z,5.53
2022-12-25T00:16:15.840Z,4.80
2022-12-25T00:18:43.345Z,5.40
2022-12-25T00:21:12.068Z,5.07
2022-12-25T00:23:39.903Z,5.00
2022-12-25T00:26:11.545Z,5.13
2022-12-25T00:28:39.677Z,5.00
2022-12-25T00:31:08.338Z,5.27
2022-12-25T00:33:36.719Z,5.37
2022-12-25T00:36:06.402Z,5.40
2022-12-25T00:38:34.887Z,5.70
2022-12-25T00:41:06.141Z,5.60
2022-12-25T00:43:35.044Z,5.60
2022-12-25T00:46:04.763Z,5.60
2022-12-25T00:48:34.013Z,5.70
2022-12-25T00:51:03.815Z,5.63
2022-12-25T00:53:32.006Z,5.57
2022-12-25T00:56:01.506Z,5.03
2022-12-25T00:58:31.170Z,5.13
2022-12-25T01:01:00.457Z,5.37
2022-12-25T01:03:28.765Z,5.17
2022-12-25T01:05:58.538Z,5.30
2022-12-25T01:08:26.472Z,5.03
2022-12-25T01:10:56.983Z,5.07
2022-12-25T01:13:24.819Z,4.97
2022-12-25T01:15:54.200Z,4.57
2022-12-25T01:18:24.497Z,5.23
2022-12-25T01:20:52.651Z,4.87
2022-12-25T01:23:20.346Z,4.97
2022-12-25T01:25:47.800Z,5.10
2022-12-25T01:28:16.832Z,4.93
2022-12-25T01:30:49.271Z,5.10
2022-12-25T01:33:16.739Z,4.63
2022-12-25T01:35:45.547Z,4.83
2022-12-25T01:38:13.041Z,5.40
2022-12-25T01:40:41.149Z,5.50
2022-12-25T01:43:22.913Z,5.63
2022-12-25T01:45:52.513Z,5.60
2022-12-25T01:48:23.893Z,6.07
2022-12-25T01:50:57.069Z,6.00
2022-12-25T01:53:25.582Z,5.80
2022-12-25T01:55:57.296Z,5.40
2022-12-25T01:58:25.300Z,5.83
2022-12-25T02:00:53.139Z,5.73
2022-12-25T02:03:22.219Z,5.83
2022-12-25T02:05:49.987Z,5.73
2022-12-25T02:08:21.402Z,5.20
2022-12-25T02:10:48.996Z,5.47
2022-12-25T02:13:19.205Z,5.30
2022-12-25T02:15:56.169Z,5.67
2022-12-25T02:18:34.566Z,5.90
2022-12-25T02:21:30.823Z,5.20
2022-12-25T02:24:12.268Z,5.37
2022-12-25T02:27:08.348Z,6.10
2022-12-25T02:29:46.294Z,5.43
2022-12-25T02:32:20.720Z,5.53
2022-12-25T02:34:52.753Z,5.57
2022-12-25T02:37:27.219Z,5.13
2022-12-25T02:40:03.087Z,4.80
2022-12-25T02:43:06.240Z,5.00
2022-12-25T02:45:57.618Z,5.30
2022-12-25T02:48:46.947Z,5.83
2022-12-25T02:51:35.318Z,5.67
2022-12-25T02:54:23.587Z,6.43
2022-12-25T02:57:10.829Z,6.33
2022-12-25T02:59:58.942Z,6.97
2022-12-25T03:02:46.989Z,7.00
2022-12-25T03:05:35.853Z,6.43
2022-12-25T03:08:07.643Z,5.37
2022-12-25T03:10:55.629Z,6.30
2022-12-25T03:13:28.731Z,5.60
2022-12-25T03:16:22.547Z,5.43
2022-12-25T03:18:51.449Z,5.03
2022-12-25T03:21:36.381Z,4.90
2022-12-25T03:24:21.687Z,4.40
2022-12-25T03:26:58.259Z,4.83
2022-12-25T03:29:47.062Z,4.43
2022-12-25T03:32:23.728Z,4.70
2022-12-25T03:35:21.628Z,4.80
2022-12-25T03:38:33.086Z,5.00
2022-12-25T03:41:28.735Z,5.50
2022-12-25T03:44:30.355Z,4.40
2022-12-25T03:47:23.917Z,4.50
2022-12-25T03:50:18.291Z,4.37
2022-12-25T03:53:05.544Z,4.80
2022-12-25T03:55:51.369Z,4.77
2022-12-25T03:58:37.507Z,4.47
2022-12-25T04:01:22.955Z,4.30
2022-12-25T04:04:07.998Z,4.40
2022-12-25T04:06:54.408Z,4.87
2022-12-25T04:09:39.753Z,4.13
2022-12-25T04:12:25.514Z,4.13
2022-12-25T04:15:10.869Z,4.33
2022-12-25T04:17:58.434Z,4.23
2022-12-25T04:20:43.615Z,4.13
2022-12-25T04:23:30.217Z,4.23
2022-12-25T04:26:16.441Z,4.10
2022-12-25T04:29:01.699Z,4.30
2022-12-25T04:31:47.088Z,4.27
2022-12-25T04:34:32.339Z,4.23
2022-12-25T04:36:59.793Z,3.80
2022-12-25T04:39:28.599Z,4.47
2022-12-25T04:41:56.099Z,4.60
2022-12-25T04:44:23.602Z,4.43
2022-12-25T04:46:51.132Z,4.70
2022-12-25T04:49:18.656Z,4.40
2022-12-25T04:51:46.086Z,4.47
2022-12-25T04:54:13.525Z,4.77
2022-12-25T04:56:45.779Z,4.27
2022-12-25T04:59:13.646Z,4.50
2022-12-25T05:01:41.254Z,4.63
2022-12-25T05:04:08.779Z,4.63
2022-12-25T05:06:36.364Z,4.23
2022-12-25T05:09:03.858Z,4.13
2022-12-25T05:11:31.339Z,4.53
2022-12-25T05:14:00.132Z,4.37
2022-12-25T05:16:27.952Z,4.17
2022-12-25T05:18:55.441Z,4.43
2022-12-25T05:21:23.148Z,4.00
2022-12-25T05:23:51.253Z,4.47
2022-12-25T05:26:21.587Z,4.17
2022-12-25T05:28:49.562Z,4.07
2022-12-25T05:31:18.881Z,4.17
2022-12-25T05:33:46.621Z,3.93
2022-12-25T05:36:14.135Z,4.20
2022-12-25T05:38:41.576Z,3.93
2022-12-25T05:41:09.167Z,4.00
2022-12-25T05:43:36.671Z,4.73
2022-12-25T05:46:06.824Z,4.53
2022-12-25T05:48:37.321Z,4.33
2022-12-25T05:51:06.518Z,4.50
2022-12-25T05:53:34.560Z,4.40
2022-12-25T05:56:03.804Z,4.43
2022-12-25T05:58:31.599Z,4.30
2022-12-25T06:00:59.247Z,4.60
2022-12-25T06:03:27.617Z,4.50
2022-12-25T06:05:56.602Z,4.87
2022-12-25T06:08:24.094Z,4.43
2022-12-25T06:10:51.633Z,4.53
2022-12-25T06:13:19.098Z,4.33
2022-12-25T06:15:46.576Z,4.43
2022-12-25T06:18:14.010Z,4.67
2022-12-25T06:20:42.052Z,5.10
2022-12-25T06:23:11.151Z,5.20
2022-12-25T06:25:40.144Z,4.93
2022-12-25T06:28:08.136Z,4.80
2022-12-25T06:30:35.611Z,5.23
2022-12-25T06:33:03.101Z,5.07
2022-12-25T06:35:30.541Z,4.37
2022-12-25T06:37:57.985Z,3.90
2022-12-25T06:40:26.759Z,3.77
2022-12-25T06:42:54.214Z,3.60
2022-12-25T06:45:21.676Z,3.80
2022-12-25T06:47:49.123Z,3.63
2022-12-25T06:50:16.739Z,3.80
2022-12-25T06:52:44.221Z,3.90
2022-12-25T06:55:11.709Z,3.60
2022-12-25T06:57:40.484Z,3.60
2022-12-25T07:00:10.857Z,3.40
2022-12-25T07:02:39.268Z,3.40
2022-12-25T07:05:07.560Z,3.50
2022-12-25T07:07:35.006Z,3.70
2022-12-25T07:10:02.444Z,3.57
2022-12-25T07:12:29.895Z,3.43
2022-12-25T07:14:58.695Z,3.27
2022-12-25T07:17:26.196Z,3.20
2022-12-25T07:19:53.640Z,3.30
2022-12-25T07:22:21.106Z,3.90
2022-12-25T07:24:48.572Z,3.27
2022-12-25T07:27:16.027Z,3.40
2022-12-25T07:29:43.533Z,3.17
2022-12-25T07:32:12.498Z,3.37
2022-12-25T07:42:39.702Z,2.93
2022-12-25T07:45:08.514Z,3.33
2022-12-25T07:47:37.268Z,2.90
2022-12-25T07:50:05.496Z,3.10
2022-12-25T07:52:36.680Z,3.20
2022-12-25T07:55:09.752Z,3.40
2022-12-25T07:57:37.242Z,3.17
2022-12-25T08:00:04.926Z,3.50
2022-12-25T08:02:32.741Z,3.27
2022-12-25T08:05:01.983Z,3.13
2022-12-25T08:07:29.434Z,3.60
2022-12-25T08:09:56.924Z,3.20
2022-12-25T08:12:24.392Z,3.30
2022-12-25T08:14:51.813Z,3.20
2022-12-25T08:17:19.247Z,3.07
2022-12-25T08:19:46.793Z,3.60
2022-12-25T08:22:15.593Z,2.97
2022-12-25T08:24:43.062Z,2.83
2022-12-25T08:27:10.511Z,3.20
2022-12-25T08:29:37.953Z,2.87
2022-12-25T08:32:05.609Z,3.10
2022-12-25T08:34:33.080Z,2.90
2022-12-25T08:37:00.549Z,2.77
2022-12-25T08:39:29.516Z,3.30
2022-12-25T08:41:56.917Z,3.33
2022-12-25T08:44:24.393Z,3.10
2022-12-25T08:46:51.844Z,2.90
2022-12-25T08:49:19.311Z,2.60
2022-12-25T08:51:46.864Z,2.60
2022-12-25T08:54:14.383Z,3.10
2022-12-25T08:56:43.135Z,2.90
2022-12-25T08:59:11.645Z,2.87
2022-12-25T09:01:39.265Z,2.80
2022-12-25T09:04:06.779Z,3.33
2022-12-25T09:06:34.340Z,3.10
2022-12-25T09:09:01.813Z,3.03
2022-12-25T09:11:29.265Z,3.10
2022-12-25T09:13:58.104Z,2.97
2022-12-25T09:16:25.618Z,3.20
2022-12-25T09:18:53.173Z,3.20
2022-12-25T09:21:20.751Z,3.00
2022-12-25T09:23:48.461Z,3.07
2022-12-25T09:26:18.123Z,2.90
2022-12-25T09:28:51.439Z,2.90
2022-12-25T09:31:21.964Z,2.97
2022-12-25T09:33:49.942Z,3.20
2022-12-25T09:36:17.675Z,3.10
2022-12-25T09:38:45.140Z,2.87
2022-12-25T09:41:21.216Z,3.40
2022-12-25T09:43:51.357Z,3.07
2022-12-25T09:46:24.312Z,3.40
2022-12-25T09:49:03.826Z,3.17
2022-12-25T09:51:35.408Z,2.87
2022-12-25T09:54:07.623Z,3.30
2022-12-25T09:56:35.363Z,2.90
2022-12-25T09:59:02.816Z,2.90
2022-12-25T10:01:39.122Z,3.30
2022-12-25T10:04:25.579Z,3.30
2022-12-25T10:07:06.734Z,3.37
2022-12-25T10:09:58.044Z,3.77
2022-12-25T10:12:41.246Z,3.70
2022-12-25T10:15:19.304Z,3.53
2022-12-25T10:18:01.138Z,3.40
2022-12-25T10:20:41.476Z,3.40
2022-12-25T10:23:15.327Z,3.50
2022-12-25T10:25:42.948Z,3.60
2022-12-25T10:28:15.221Z,3.50
2022-12-25T10:30:44.792Z,3.13
2022-12-25T10:33:17.399Z,3.57
2022-12-25T10:35:45.908Z,3.40
2022-12-25T10:38:16.169Z,3.00
2022-12-25T10:41:00.932Z,3.40
2022-12-25T10:43:36.366Z,3.17
2022-12-25T10:46:11.621Z,3.10
2022-12-25T10:48:44.381Z,2.90
2022-12-25T10:51:11.905Z,3.33
2022-12-25T10:53:41.846Z,3.00
2022-12-25T10:56:17.732Z,3.03
2022-12-25T10:58:45.753Z,3.10
2022-12-25T11:01:14.348Z,2.80
2022-12-25T11:03:46.761Z,3.40
2022-12-25T11:06:25.465Z,2.90
2022-12-25T11:08:56.038Z,3.07
2022-12-25T11:11:24.466Z,3.07
2022-12-25T11:13:53.865Z,2.97
2022-12-25T11:16:30.682Z,2.90
2022-12-25T11:19:01.012Z,3.30
2022-12-25T11:21:30.688Z,2.87
2022-12-25T11:24:00.329Z,2.50
2022-12-25T11:26:29.590Z,3.07
2022-12-25T11:28:57.978Z,2.80
2022-12-25T11:31:34.264Z,2.90
2022-12-25T11:34:08.542Z,3.20
2022-12-25T11:36:45.194Z,2.70
2022-12-25T11:39:22.856Z,2.97
2022-12-25T11:41:54.318Z,3.00
2022-12-25T11:44:32.869Z,2.97
2022-12-25T11:47:12.717Z,3.00
2022-12-25T11:49:50.608Z,2.80
2022-12-25T11:52:22.847Z,2.90
2022-12-25T11:54:57.051Z,3.17
2022-12-25T11:57:27.317Z,3.30
2022-12-25T11:59:58.979Z,3.27
2022-12-25T12:02:33.273Z,3.13
2022-12-25T12:05:14.439Z,3.13
2022-12-25T12:07:53.292Z,3.10
2022-12-25T12:10:29.112Z,3.00
2022-12-25T12:13:13.533Z,3.03
2022-12-25T12:15:44.639Z,3.13
2022-12-25T12:18:21.877Z,2.93
2022-12-25T12:21:01.657Z,3.50
2022-12-25T12:23:31.281Z,3.60
2022-12-25T12:25:58.990Z,3.40
2022-12-25T12:28:28.451Z,3.50
2022-12-25T12:31:04.607Z,3.23
2022-12-25T12:33:37.332Z,3.70
2022-12-25T12:36:07.287Z,3.50
2022-12-25T12:38:36.048Z,3.70
2022-12-25T12:41:06.899Z,3.60
2022-12-25T12:43:38.682Z,3.40
2022-12-25T12:46:15.819Z,3.57
2022-12-25T12:48:46.009Z,3.63
2022-12-25T12:51:27.747Z,3.60
2022-12-25T12:54:07.729Z,3.30
2022-12-25T12:56:35.220Z,3.30
2022-12-25T12:59:02.660Z,3.63
2022-12-25T13:01:40.895Z,3.60
2022-12-25T13:04:41.527Z,3.47
2022-12-25T13:07:28.264Z,3.30
2022-12-25T13:10:05.892Z,3.40
2022-12-25T13:12:33.539Z,3.13
2022-12-25T13:15:01.456Z,3.30
2022-12-25T13:17:30.037Z,3.60
2022-12-25T13:20:00.416Z,3.43
2022-12-25T13:22:33.432Z,3.33
2022-12-25T13:25:02.996Z,3.27
2022-12-25T13:27:32.584Z,3.23
2022-12-25T13:30:00.824Z,3.20
2022-12-25T13:32:31.727Z,3.30
2022-12-25T13:35:00.294Z,3.30
2022-12-25T13:37:31.582Z,3.40
2022-12-25T13:40:01.994Z,3.40
2022-12-25T13:42:32.518Z,3.70
2022-12-25T13:45:02.357Z,3.60
2022-12-25T13:47:33.568Z,3.07
2022-12-25T13:50:14.067Z,3.60
2022-12-25T13:52:43.246Z,3.30
2022-12-25T13:55:14.534Z,3.50
2022-12-25T13:57:45.842Z,3.87
2022-12-25T14:00:20.256Z,3.87
2022-12-25T14:02:48.669Z,3.40
2022-12-25T14:05:27.764Z,4.13
2022-12-25T14:07:58.939Z,3.97
2022-12-25T14:10:28.807Z,4.30
2022-12-25T14:13:00.227Z,3.67
2022-12-25T14:15:31.071Z,4.10
2022-12-25T14:17:59.336Z,4.40
2022-12-25T14:20:29.048Z,4.23
2022-12-25T14:23:00.648Z,4.13
2022-12-25T14:25:31.411Z,4.23
2022-12-25T14:27:59.463Z,4.47
2022-12-25T14:30:29.791Z,4.80
2022-12-25T14:32:58.520Z,4.53
2022-12-25T14:35:26.299Z,4.57
2022-12-25T14:38:00.137Z,4.73
2022-12-25T14:40:30.639Z,4.80
2022-12-25T14:42:59.921Z,4.30
2022-12-25T14:45:30.712Z,4.43
2022-12-25T14:47:59.818Z,4.80
2022-12-25T14:50:30.329Z,4.43
2022-12-25T14:53:00.241Z,4.57
2022-12-25T14:55:29.477Z,4.50
2022-12-25T14:57:59.125Z,4.87
2022-12-25T15:00:31.551Z,4.73
2022-12-25T15:03:00.910Z,4.40
2022-12-25T15:05:36.576Z,4.50
2022-12-25T15:08:24.478Z,4.57
2022-12-25T15:11:02.173Z,4.13
2022-12-25T15:13:32.072Z,3.97
2022-12-25T15:16:04.662Z,4.90
2022-12-25T15:18:37.573Z,4.30
2022-12-25T15:21:05.310Z,4.60
2022-12-25T15:23:34.087Z,4.33
2022-12-25T15:26:01.626Z,4.53
2022-12-25T15:28:29.069Z,3.90
2022-12-25T15:30:57.064Z,4.33
2022-12-25T15:33:24.550Z,3.70
2022-12-25T15:35:51.988Z,3.67
2022-12-25T15:38:19.421Z,4.03
2022-12-25T15:40:48.325Z,4.17
2022-12-25T15:43:39.350Z,3.90
2022-12-25T15:46:03.963Z,3.70
2022-12-25T15:48:31.428Z,3.77
2022-12-25T15:50:58.892Z,3.77
2022-12-25T15:53:26.853Z,3.63
2022-12-25T15:55:55.755Z,3.70
2022-12-25T15:58:23.220Z,3.40
2022-12-25T16:00:51.551Z,3.47
2022-12-25T16:03:19.043Z,3.47
2022-12-25T16:05:46.496Z,3.70
2022-12-25T16:08:13.913Z,3.47
2022-12-25T16:10:41.455Z,3.10
2022-12-25T16:13:10.264Z,3.23
2022-12-25T16:15:37.799Z,3.50
2022-12-25T16:18:05.670Z,3.20
2022-12-25T16:20:33.340Z,3.33
2022-12-25T16:23:00.815Z,3.07
2022-12-25T16:25:28.285Z,2.97
2022-12-25T16:27:55.718Z,2.80
2022-12-25T16:30:24.476Z,3.13
2022-12-25T16:32:52.195Z,3.20
2022-12-25T16:35:19.770Z,2.83
2022-12-25T16:37:47.236Z,2.87
2022-12-25T16:40:15.001Z,3.37
2022-12-25T16:42:42.604Z,2.90
2022-12-25T16:45:10.936Z,3.10
2022-12-25T16:47:39.723Z,3.30
2022-12-25T16:50:09.395Z,3.10
2022-12-25T16:52:37.213Z,3.07
2022-12-25T16:55:05.481Z,3.10
2022-12-25T16:57:33.667Z,2.90
2022-12-25T17:00:01.168Z,2.63
2022-12-25T17:02:28.807Z,2.73
2022-12-25T17:04:57.675Z,3.10
2022-12-25T17:07:25.193Z,3.00
2022-12-25T17:09:52.688Z,3.13
2022-12-25T17:12:20.132Z,3.07
2022-12-25T17:14:47.580Z,3.63
2022-12-25T17:17:15.011Z,3.30
2022-12-25T17:19:42.554Z,3.40
2022-12-25T17:22:11.438Z,3.00
2022-12-25T17:24:41.214Z,3.40
2022-12-25T17:27:09.272Z,2.90
2022-12-25T17:29:38.946Z,3.33
2022-12-25T17:32:06.945Z,3.43
2022-12-25T17:34:34.535Z,3.77
2022-12-25T17:37:01.953Z,4.10
2022-12-25T17:39:31.125Z,3.60
2022-12-25T17:41:58.631Z,4.07
2022-12-25T17:44:26.380Z,3.70
2022-12-25T17:46:53.978Z,4.30
2022-12-25T17:49:22.938Z,4.17
2022-12-25T17:51:50.486Z,4.20
2022-12-25T17:54:17.940Z,4.20
2022-12-25T17:56:46.756Z,4.50
2022-12-25T17:59:18.220Z,4.30
2022-12-25T18:01:48.056Z,4.27
2022-12-25T18:04:15.765Z,3.97
2022-12-25T18:06:43.303Z,4.40
2022-12-25T18:09:11.863Z,4.40
2022-12-25T18:11:43.221Z,4.20
2022-12-25T18:14:14.562Z,4.73
2022-12-25T18:16:44.336Z,4.50
2022-12-25T18:19:13.183Z,4.53
2022-12-25T18:21:40.958Z,4.70
2022-12-25T18:24:09.550Z,4.63
2022-12-25T18:26:37.661Z,3.97
2022-12-25T18:29:06.734Z,4.40
2022-12-25T18:31:35.591Z,4.50
2022-12-25T18:34:03.133Z,4.67
2022-12-25T18:36:30.913Z,4.80
2022-12-25T18:38:59.366Z,4.70
2022-12-25T18:41:28.690Z,4.50
2022-12-25T18:43:56.351Z,4.60
2022-12-25T18:46:25.936Z,4.30
2022-12-25T18:48:55.921Z,4.40
2022-12-25T18:51:23.759Z,4.63
2022-12-25T18:53:51.898Z,4.83
2022-12-25T18:56:19.644Z,4.97
2022-12-25T18:58:47.732Z,4.37
2022-12-25T19:01:18.053Z,4.57
2022-12-25T19:03:48.715Z,4.63
2022-12-25T19:06:22.209Z,4.70
2022-12-25T19:08:50.472Z,4.70
2022-12-25T19:11:19.028Z,4.67
2022-12-25T19:13:47.221Z,4.60
2022-12-25T19:16:15.236Z,4.67
2022-12-25T19:18:44.050Z,5.10
2022-12-25T19:21:12.009Z,4.97
2022-12-25T19:23:41.655Z,5.23
2022-12-25T19:26:10.621Z,5.23
2022-12-25T19:28:39.191Z,5.13
2022-12-25T19:31:08.836Z,4.80
2022-12-25T19:33:38.051Z,5.03
2022-12-25T19:36:07.981Z,5.33
2022-12-25T19:38:36.065Z,5.13
2022-12-25T19:41:08.091Z,5.40
2022-12-25T19:43:38.311Z,5.30
2022-12-25T19:46:07.847Z,5.50
2022-12-25T19:48:36.721Z,5.43
2022-12-25T19:51:04.352Z,5.03
2022-12-25T19:53:32.046Z,5.23
2022-12-25T19:56:02.359Z,5.10
2022-12-25T19:58:31.173Z,5.07
2022-12-25T20:00:59.509Z,5.00
2022-12-25T20:03:27.205Z,5.00
2022-12-25T20:05:54.984Z,4.43
2022-12-25T20:08:22.543Z,4.63
2022-12-25T20:10:50.122Z,4.73
2022-12-25T20:13:17.784Z,5.10
2022-12-25T20:15:47.368Z,5.47
2022-12-25T20:18:16.687Z,5.50
2022-12-25T20:20:44.486Z,4.93
2022-12-25T20:23:11.934Z,4.60
2022-12-25T20:25:40.570Z,5.13
2022-12-25T20:28:08.329Z,5.30
2022-12-25T20:30:39.300Z,5.30
2022-12-25T20:33:08.158Z,4.67
2022-12-25T20:35:35.616Z,4.40
2022-12-25T20:38:03.167Z,4.80
2022-12-25T20:40:32.433Z,4.43
2022-12-25T20:43:09.109Z,4.83
2022-12-25T20:45:41.083Z,4.83
2022-12-25T20:48:09.895Z,4.30
2022-12-25T20:50:37.420Z,4.20
2022-12-25T20:53:04.848Z,4.37
2022-12-25T20:55:32.336Z,4.23
2022-12-25T20:57:59.789Z,4.57
2022-12-25T21:00:27.346Z,3.90
2022-12-25T21:02:55.356Z,3.80
2022-12-25T21:05:24.185Z,4.20
2022-12-25T21:07:51.610Z,3.83
2022-12-25T21:10:19.256Z,3.97
2022-12-25T21:12:46.798Z,3.87
2022-12-25T21:15:15.827Z,3.90
2022-12-25T21:17:43.496Z,4.37
2022-12-25T21:20:11.631Z,3.77
2022-12-25T21:22:40.467Z,4.00
2022-12-25T21:25:08.332Z,4.40
2022-12-25T21:27:35.868Z,4.17
2022-12-25T21:30:15.409Z,3.90
2022-12-25T21:33:00.982Z,4.47
2022-12-25T21:35:28.457Z,4.00
2022-12-25T21:37:57.253Z,4.23
2022-12-25T21:40:24.667Z,4.13
2022-12-25T21:42:52.824Z,3.70
2022-12-25T21:45:20.238Z,4.53
2022-12-25T21:48:01.335Z,4.10
2022-12-25T21:50:48.273Z,3.87
2022-12-25T21:53:17.401Z,4.10
2022-12-25T21:55:56.692Z,4.30
2022-12-25T21:58:24.264Z,4.07
2022-12-25T22:00:51.932Z,4.10
2022-12-25T22:03:19.619Z,4.43
2022-12-25T22:06:04.627Z,3.83
2022-12-25T22:08:33.985Z,4.17
2022-12-25T22:11:04.411Z,4.30
2022-12-25T22:13:49.619Z,3.90
2022-12-25T22:16:35.004Z,4.10
2022-12-25T22:19:20.158Z,3.90
2022-12-25T22:21:47.723Z,4.23
2022-12-25T22:24:16.513Z,4.40
2022-12-25T22:26:45.752Z,4.03
2022-12-25T22:29:13.262Z,4.10
2022-12-25T22:31:46.496Z,4.20
2022-12-25T22:34:16.043Z,3.90
2022-12-25T22:36:43.811Z,4.20
2022-12-25T22:39:11.298Z,4.20
2022-12-25T22:41:40.101Z,4.00
2022-12-25T22:44:17.015Z,3.80
2022-12-25T22:46:45.412Z,4.00
2022-12-25T22:49:12.877Z,4.43
2022-12-25T22:51:40.378Z,4.07
2022-12-25T22:54:08.332Z,3.80
2022-12-25T22:56:35.788Z,3.80
2022-12-25T22:59:04.648Z,3.93
2022-12-25T23:01:32.265Z,3.87
2022-12-25T23:04:00.020Z,3.97
2022-12-25T23:06:27.723Z,4.10
2022-12-25T23:08:55.213Z,4.13
2022-12-25T23:11:22.933Z,3.80
2022-12-25T23:14:07.867Z,4.17
2022-12-25T23:16:36.752Z,4.00
2022-12-25T23:19:23.121Z,3.93
2022-12-25T23:22:08.407Z,3.80
2022-12-25T23:24:53.604Z,4.30
2022-12-25T23:27:21.127Z,3.97
2022-12-25T23:29:47.589Z,3.93
2022-12-25T23:32:22.352Z,3.70
2022-12-25T23:34:50.421Z,3.87
2022-12-25T23:37:18.219Z,3.80
2022-12-25T23:39:45.803Z,3.90
2022-12-25T23:42:13.377Z,3.80
2022-12-25T23:44:41.920Z,3.73
2022-12-25T23:47:09.549Z,4.10
2022-12-25T23:49:38.626Z,3.93
2022-12-25T23:52:06.475Z,3.90
2022-12-25T23:54:34.274Z,3.80
2022-12-25T23:57:01.782Z,3.80
2022-12-25T23:59:31.137Z,3.70
